Time;durP1;ratioP1;P1;durP2;ratioP2;P2;SDS_P1;SDS_P2;PMS_P1;PMS_P2;Temp;Humidity;BMP_temperature;BMP_pressure;BME280_temperature;BME280_humidity;BME280_pressure;Samples;Min_cycle;Max_cycle;Signal;HPM_P1;HPM_P2
2021/05/14 00:01:53;;;;;;;;;;;;;;;;;;4928552;29;20052;-56
2021/05/14 00:04:20;;;;;;;42.55;33.17;;;;;;;;;;4923491;29;20391;-52
2021/05/14 00:06:47;;;;;;;54.38;37.30;;;;;;;;;;4923475;29;20047;-57
2021/05/14 00:09:15;;;;;;;49.45;35.33;;;;;;;;;;4920736;29;20047;-57
2021/05/14 00:11:43;;;;;;;54.42;38.95;;;;;;;;;;4922606;29;20050;-56
2021/05/14 00:14:10;;;;;;;36.47;27.50;;;;;;;;;;4927560;29;20131;-56
2021/05/14 00:16:37;;;;;;;35.63;27.55;;;;;;;;;;4928414;29;20047;-55
2021/05/14 00:19:04;;;;;;;51.33;32.87;;;;;;;;;;4926423;29;20047;-56
2021/05/14 00:21:31;;;;;;;42.03;31.75;;;;;;;;;;4926042;29;20047;-56
2021/05/14 00:24:00;;;;;;;49.70;35.72;;;;;;;;;;4926640;29;20044;-56
2021/05/14 00:26:27;;;;;;;46.67;35.47;;;;;;;;;;4928500;29;20075;-57
2021/05/14 00:28:54;;;;;;;48.53;34.63;;;;;;;;;;4929964;29;20306;-56
2021/05/14 00:31:21;;;;;;;69.88;45.08;;;;;;;;;;4928679;29;20075;-56
2021/05/14 00:33:48;;;;;;;46.80;34.92;;;;;;;;;;4949845;28;20051;-57
2021/05/14 00:36:14;;;;;;;63.43;41.53;;;;;;;;;;4943141;28;20105;-57
2021/05/14 00:38:41;;;;;;;41.37;31.33;;;;;;;;;;4947580;28;20415;-54
2021/05/14 00:41:08;;;;;;;51.20;34.37;;;;;;;;;;4946909;28;20305;-57
2021/05/14 00:43:35;;;;;;;53.60;38.05;;;;;;;;;;4943960;28;20038;-56
2021/05/14 00:46:02;;;;;;;50.20;37.45;;;;;;;;;;4949014;28;20132;-57
2021/05/14 00:48:30;;;;;;;64.13;41.00;;;;;;;;;;4947886;28;20162;-57
2021/05/14 00:50:57;;;;;;;47.28;36.03;;;;;;;;;;4941150;28;20047;-56
2021/05/14 00:53:24;;;;;;;46.83;32.97;;;;;;;;;;4948310;28;20110;-56
2021/05/14 00:55:51;;;;;;;34.78;26.40;;;;;;;;;;4942238;28;20043;-56
2021/05/14 00:58:18;;;;;;;37.72;27.08;;;;;;;;;;4941841;29;20555;-57
2021/05/14 01:00:45;;;;;;;22.42;18.17;;;;;;;;;;4943506;28;20407;-57
2021/05/14 01:03:14;;;;;;;20.30;18.17;;;;;;;;;;4940837;28;20057;-56
2021/05/14 01:05:42;;;;;;;20.95;18.85;;;;;;;;;;4946243;28;20054;-56
2021/05/14 01:08:10;;;;;;;20.63;18.42;;;;;;;;;;4946409;28;20043;-56
2021/05/14 01:10:37;;;;;;;19.83;17.60;;;;;;;;;;4943743;28;20114;-54
2021/05/14 01:13:03;;;;;;;28.00;23.75;;;;;;;;;;4942643;28;20046;-55
2021/05/14 01:15:31;;;;;;;26.30;22.77;;;;;;;;;;4943092;28;20456;-56
2021/05/14 01:17:58;;;;;;;36.90;25.77;;;;;;;;;;4946067;28;20062;-56
2021/05/14 01:20:26;;;;;;;37.03;26.17;;;;;;;;;;4941188;28;20237;-55
2021/05/14 01:22:53;;;;;;;31.35;25.15;;;;;;;;;;4943672;28;20058;-54
2021/05/14 01:25:19;;;;;;;33.97;27.73;;;;;;;;;;4945115;28;20053;-57
2021/05/14 01:27:46;;;;;;;31.55;22.23;;;;;;;;;;4927048;29;20056;-56
2021/05/14 01:30:15;;;;;;;33.08;27.10;;;;;;;;;;4936852;29;20514;-57
2021/05/14 01:32:42;;;;;;;28.60;24.73;;;;;;;;;;4928250;28;20409;-54
2021/05/14 01:35:08;;;;;;;23.85;18.10;;;;;;;;;;4926296;29;20483;-57
2021/05/14 01:37:38;;;;;;;31.00;22.67;;;;;;;;;;4923009;29;20055;-57
2021/05/14 01:40:04;;;;;;;41.58;31.42;;;;;;;;;;4922340;29;20051;-57
2021/05/14 01:42:31;;;;;;;47.05;37.00;;;;;;;;;;4928071;29;20503;-57
2021/05/14 01:44:58;;;;;;;29.75;24.83;;;;;;;;;;4928809;29;20036;-56
2021/05/14 01:47:25;;;;;;;42.42;31.13;;;;;;;;;;4933346;29;20051;-56
2021/05/14 01:49:52;;;;;;;39.58;28.30;;;;;;;;;;4932835;29;20452;-56
2021/05/14 01:52:19;;;;;;;;;;;;;;;;;;4927446;29;20968;-56
2021/05/14 01:54:45;;;;;;;54.75;40.40;;;;;;;;;;4923846;29;19923;-54
2021/05/14 01:57:12;;;;;;;48.35;36.35;;;;;;;;;;4929493;29;20040;-54
2021/05/14 01:59:39;;;;;;;45.30;30.77;;;;;;;;;;4924766;29;20062;-55
2021/05/14 02:02:06;;;;;;;49.10;34.22;;;;;;;;;;4926408;29;20044;-56
2021/05/14 02:04:33;;;;;;;58.88;39.20;;;;;;;;;;4930595;29;20044;-57
2021/05/14 02:07:00;;;;;;;61.60;43.03;;;;;;;;;;4931424;29;20121;-57
2021/05/14 02:09:26;;;;;;;49.23;34.60;;;;;;;;;;4932434;29;20062;-55
2021/05/14 02:11:53;;;;;;;48.92;35.70;;;;;;;;;;4930865;29;20096;-57
2021/05/14 02:14:21;;;;;;;;;;;;;;;;;;4927215;29;20039;-57
2021/05/14 02:16:47;;;;;;;40.40;30.35;;;;;;;;;;4922347;29;20035;-57
2021/05/14 02:19:14;;;;;;;31.27;24.90;;;;;;;;;;4927821;29;20040;-57
2021/05/14 02:21:41;;;;;;;31.73;25.23;;;;;;;;;;4925032;29;20040;-55
2021/05/14 02:24:08;;;;;;;33.72;24.98;;;;;;;;;;4927007;29;20065;-57
2021/05/14 02:26:35;;;;;;;26.67;18.97;;;;;;;;;;4926572;29;20039;-56
2021/05/14 02:29:02;;;;;;;25.02;20.13;;;;;;;;;;4926995;29;20730;-57
2021/05/14 02:31:29;;;;;;;20.60;16.60;;;;;;;;;;4929404;29;20066;-55
2021/05/14 02:33:56;;;;;;;22.97;16.47;;;;;;;;;;4927867;29;20052;-56
2021/05/14 02:36:24;;;;;;;18.65;13.43;;;;;;;;;;4922314;29;20433;-57
2021/05/14 02:38:51;;;;;;;14.90;12.75;;;;;;;;;;4932674;29;20169;-55
2021/05/14 02:41:17;;;;;;;15.25;12.57;;;;;;;;;;4928539;29;20052;-56
2021/05/14 02:43:46;;;;;;;14.43;12.63;;;;;;;;;;4934119;29;20119;-56
2021/05/14 02:46:13;;;;;;;20.35;12.18;;;;;;;;;;4930555;29;20048;-57
2021/05/14 02:48:39;;;;;;;13.40;11.55;;;;;;;;;;4927476;29;20044;-56
2021/05/14 02:51:06;;;;;;;13.07;11.15;;;;;;;;;;4928569;29;20040;-56
2021/05/14 02:53:33;;;;;;;14.82;10.20;;;;;;;;;;4928653;29;20040;-56
2021/05/14 02:56:00;;;;;;;13.67;9.37;;;;;;;;;;4914211;29;20515;-55
2021/05/14 02:58:26;;;;;;;12.73;10.02;;;;;;;;;;4923848;29;20649;-56
2021/05/14 03:00:53;;;;;;;12.73;10.98;;;;;;;;;;4928198;29;20051;-56
2021/05/14 03:03:21;;;;;;;11.23;10.10;;;;;;;;;;4926925;29;20048;-56
2021/05/14 03:05:48;;;;;;;12.77;10.13;;;;;;;;;;4925796;29;20055;-56
2021/05/14 03:08:14;;;;;;;12.93;11.33;;;;;;;;;;4927201;29;20123;-56
2021/05/14 03:10:41;;;;;;;12.05;9.88;;;;;;;;;;4929794;29;20077;-57
2021/05/14 03:13:07;;;;;;;14.50;11.10;;;;;;;;;;4930572;29;20533;-56
2021/05/14 03:15:34;;;;;;;18.02;11.75;;;;;;;;;;4930840;29;20056;-56
2021/05/14 03:18:01;;;;;;;19.50;11.27;;;;;;;;;;4933173;29;20044;-54
2021/05/14 03:20:28;;;;;;;15.38;12.32;;;;;;;;;;4925529;29;20295;-56
2021/05/14 03:22:55;;;;;;;19.02;12.23;;;;;;;;;;4931573;29;20407;-57
2021/05/14 03:25:24;;;;;;;16.57;13.00;;;;;;;;;;4927897;29;20117;-54
2021/05/14 03:27:51;;;;;;;14.63;10.35;;;;;;;;;;4929234;29;20431;-56
2021/05/14 03:30:18;;;;;;;11.23;9.68;;;;;;;;;;4926258;29;20064;-57
2021/05/14 03:32:45;;;;;;;13.77;9.47;;;;;;;;;;4928389;29;20134;-55
2021/05/14 03:35:12;;;;;;;18.08;9.65;;;;;;;;;;4926879;29;20123;-56
2021/05/14 03:37:39;;;;;;;12.47;10.77;;;;;;;;;;4929129;29;20143;-57
2021/05/14 03:40:17;;;;;;;14.88;11.95;;;;;;;;;;4920473;29;20043;-56
2021/05/14 03:42:44;;;;;;;12.70;11.40;;;;;;;;;;4927302;29;20047;-56
2021/05/14 03:45:11;;;;;;;14.75;9.00;;;;;;;;;;4924973;29;20510;-56
2021/05/14 03:47:38;;;;;;;11.23;10.10;;;;;;;;;;4916437;29;20429;-56
2021/05/14 03:50:05;;;;;;;15.65;11.68;;;;;;;;;;4924843;29;20139;-55
2021/05/14 03:52:32;;;;;;;14.13;9.53;;;;;;;;;;4923850;29;20088;-55
2021/05/14 03:55:00;;;;;;;11.88;10.07;;;;;;;;;;4921587;29;20449;-55
2021/05/14 03:57:28;;;;;;;12.82;8.90;;;;;;;;;;4922127;29;20127;-57
2021/05/14 03:59:55;;;;;;;12.60;8.52;;;;;;;;;;4924946;29;20051;-57
2021/05/14 04:02:21;;;;;;;12.45;8.43;;;;;;;;;;4924810;29;20063;-57
2021/05/14 04:04:48;;;;;;;8.63;7.72;;;;;;;;;;4925857;29;20066;-56
2021/05/14 04:07:15;;;;;;;10.43;6.75;;;;;;;;;;4923642;29;20036;-56
2021/05/14 04:09:49;;;;;;;13.50;6.53;;;;;;;;;;4921492;29;20078;-56
2021/05/14 04:15:02;;;;;;;10.60;5.75;;;;;;;;;;4921404;29;20048;-56
2021/05/14 04:17:29;;;;;;;;;;;;;;;;;;4925399;29;20047;-57
2021/05/14 04:19:58;;;;;;;10.63;5.95;;;;;;;;;;4923142;29;19926;-56
2021/05/14 04:22:25;;;;;;;8.10;5.93;;;;;;;;;;4924451;29;20664;-57
2021/05/14 04:24:53;;;;;;;8.07;5.80;;;;;;;;;;4925441;29;20091;-56
2021/05/14 04:27:20;;;;;;;11.63;5.80;;;;;;;;;;4928025;29;20150;-57
2021/05/14 04:29:47;;;;;;;9.63;6.20;;;;;;;;;;4925520;29;20052;-56
2021/05/14 04:32:14;;;;;;;7.63;5.85;;;;;;;;;;4927970;29;20118;-56
2021/05/14 04:34:41;;;;;;;7.97;5.78;;;;;;;;;;4931118;29;20096;-54
2021/05/14 04:37:08;;;;;;;7.38;6.30;;;;;;;;;;4911640;29;20070;-56
2021/05/14 04:39:35;;;;;;;7.87;6.00;;;;;;;;;;4921425;29;20054;-55
2021/05/14 04:42:01;;;;;;;9.47;6.03;;;;;;;;;;4924153;29;20044;-56
2021/05/14 04:44:28;;;;;;;12.35;5.72;;;;;;;;;;4926985;29;20052;-55
2021/05/14 04:46:56;;;;;;;;;;;;;;;;;;4920377;29;20039;-56
2021/05/14 04:49:23;;;;;;;13.63;5.82;;;;;;;;;;4929681;29;19977;-55
2021/05/14 04:51:50;;;;;;;17.23;5.93;;;;;;;;;;4926267;29;20411;-56
2021/05/14 04:54:17;;;;;;;10.07;6.57;;;;;;;;;;4920483;29;20055;-53
2021/05/14 04:56:44;;;;;;;10.35;6.13;;;;;;;;;;4925573;29;20122;-56
2021/05/14 04:59:10;;;;;;;8.38;5.97;;;;;;;;;;4928128;29;20039;-55
2021/05/14 05:01:39;;;;;;;10.57;6.00;;;;;;;;;;4917905;29;20042;-56
2021/05/14 05:04:06;;;;;;;6.25;5.63;;;;;;;;;;4927766;29;20052;-55
2021/05/14 05:06:33;;;;;;;9.20;6.18;;;;;;;;;;4926059;29;20039;-55
2021/05/14 05:09:00;;;;;;;6.53;5.63;;;;;;;;;;4924862;29;20523;-55
2021/05/14 05:11:26;;;;;;;10.65;6.43;;;;;;;;;;4923383;29;20055;-52
2021/05/14 05:13:53;;;;;;;9.85;5.45;;;;;;;;;;4924739;29;20051;-55
2021/05/14 05:16:20;;;;;;;13.98;6.15;;;;;;;;;;4929762;29;20060;-55
2021/05/14 05:18:47;;;;;;;8.77;5.93;;;;;;;;;;4921272;29;20050;-55
2021/05/14 05:21:13;;;;;;;8.98;6.82;;;;;;;;;;4919709;29;20300;-56
2021/05/14 05:23:40;;;;;;;15.60;7.22;;;;;;;;;;4921360;29;20044;-54
2021/05/14 05:26:07;;;;;;;11.13;6.60;;;;;;;;;;4927949;29;20078;-54
2021/05/14 05:28:34;;;;;;;11.05;7.30;;;;;;;;;;4926369;29;20441;-54
2021/05/14 05:31:01;;;;;;;10.90;6.50;;;;;;;;;;4923768;29;20047;-55
2021/05/14 05:33:28;;;;;;;14.38;6.20;;;;;;;;;;4924892;29;20059;-56
2021/05/14 05:35:54;;;;;;;9.38;6.40;;;;;;;;;;4926715;29;20765;-55
2021/05/14 05:38:24;;;;;;;8.35;6.28;;;;;;;;;;4924996;29;20047;-54
2021/05/14 05:40:51;;;;;;;7.80;6.28;;;;;;;;;;4924822;29;20044;-55
2021/05/14 05:43:18;;;;;;;9.95;6.55;;;;;;;;;;4925722;29;20150;-56
2021/05/14 05:45:46;;;;;;;10.65;6.47;;;;;;;;;;4926363;29;20495;-54
2021/05/14 05:48:13;;;;;;;9.35;6.28;;;;;;;;;;4925848;29;20174;-56
2021/05/14 05:50:40;;;;;;;7.75;6.13;;;;;;;;;;4930749;29;20126;-55
2021/05/14 05:53:10;;;;;;;12.40;6.90;;;;;;;;;;4923999;29;20108;-55
2021/05/14 05:55:37;;;;;;;11.80;7.22;;;;;;;;;;4924820;29;20096;-57
2021/05/14 05:58:07;;;;;;;10.32;7.25;;;;;;;;;;4926108;29;20139;-56
2021/05/14 06:00:35;;;;;;;9.05;6.47;;;;;;;;;;4925334;29;20048;-55
2021/05/14 06:03:02;;;;;;;14.88;6.35;;;;;;;;;;4928203;29;20044;-55
2021/05/14 06:05:29;;;;;;;10.80;6.45;;;;;;;;;;4930606;29;20072;-56
2021/05/14 06:07:56;;;;;;;13.35;6.30;;;;;;;;;;4929510;29;20040;-53
2021/05/14 06:10:23;;;;;;;13.50;6.25;;;;;;;;;;4930152;29;20050;-56
2021/05/14 06:12:49;;;;;;;8.88;5.85;;;;;;;;;;4926792;29;20044;-56
2021/05/14 06:15:17;;;;;;;9.93;6.15;;;;;;;;;;4930971;29;20508;-56
2021/05/14 06:17:44;;;;;;;10.48;6.30;;;;;;;;;;4925479;29;20496;-55
2021/05/14 06:20:13;;;;;;;9.13;5.70;;;;;;;;;;4925606;29;20044;-55
2021/05/14 06:22:40;;;;;;;7.15;6.07;;;;;;;;;;4923354;29;20155;-57
2021/05/14 06:25:07;;;;;;;9.18;6.20;;;;;;;;;;4931086;29;20048;-55
2021/05/14 06:27:34;;;;;;;8.10;5.72;;;;;;;;;;4923586;29;20139;-54
2021/05/14 06:30:01;;;;;;;13.90;5.63;;;;;;;;;;4928194;29;20064;-54
2021/05/14 06:32:28;;;;;;;7.63;6.03;;;;;;;;;;4925760;29;20080;-56
2021/05/14 06:34:56;;;;;;;11.77;6.07;;;;;;;;;;4926454;29;20044;-56
2021/05/14 06:37:24;;;;;;;10.27;6.00;;;;;;;;;;4930429;29;20048;-58
2021/05/14 06:39:50;;;;;;;10.95;5.57;;;;;;;;;;4927206;29;20044;-48
2021/05/14 06:42:17;;;;;;;9.50;5.45;;;;;;;;;;4931666;29;20124;-55
2021/05/14 06:44:44;;;;;;;7.65;5.47;;;;;;;;;;4930661;29;20066;-54
2021/05/14 06:47:11;;;;;;;13.02;5.97;;;;;;;;;;4926909;29;20042;-55
2021/05/14 06:49:38;;;;;;;12.38;6.28;;;;;;;;;;4926570;29;20055;-61
2021/05/14 06:52:07;;;;;;;11.13;5.22;;;;;;;;;;4929294;29;20039;-55
2021/05/14 06:54:34;;;;;;;9.43;5.30;;;;;;;;;;4929812;29;20711;-58
2021/05/14 06:57:02;;;;;;;10.30;5.38;;;;;;;;;;4934051;29;20383;-58
2021/05/14 06:59:29;;;;;;;12.55;5.68;;;;;;;;;;4933021;29;20503;-60
2021/05/14 07:01:56;;;;;;;14.90;6.10;;;;;;;;;;4930975;29;20048;-59
2021/05/14 07:04:23;;;;;;;;;;;;;;;;;;4927717;29;20049;-59
2021/05/14 07:06:51;;;;;;;11.45;6.53;;;;;;;;;;4927682;29;19934;-59
2021/05/14 07:09:17;;;;;;;11.15;5.20;;;;;;;;;;4925477;29;20044;-59
2021/05/14 07:11:44;;;;;;;16.02;5.97;;;;;;;;;;4924778;29;20119;-58
2021/05/14 07:14:11;;;;;;;12.93;6.32;;;;;;;;;;4928119;29;20052;-59
2021/05/14 07:16:38;;;;;;;9.18;5.47;;;;;;;;;;4928901;29;20099;-59
2021/05/14 07:19:05;;;;;;;10.13;5.50;;;;;;;;;;4926313;29;20107;-59
2021/05/14 07:21:33;;;;;;;12.60;5.88;;;;;;;;;;4929306;29;20488;-58
2021/05/14 07:23:59;;;;;;;9.88;6.15;;;;;;;;;;4927635;29;20071;-58
2021/05/14 07:26:26;;;;;;;11.70;5.37;;;;;;;;;;4928949;29;20043;-59
2021/05/14 07:28:57;;;;;;;8.23;5.55;;;;;;;;;;4927087;29;20294;-59
2021/05/14 07:31:24;;;;;;;12.63;5.28;;;;;;;;;;4914189;29;20079;-58
2021/05/14 07:33:52;;;;;;;8.90;5.65;;;;;;;;;;4950860;28;20055;-59
2021/05/14 07:36:19;;;;;;;12.43;5.90;;;;;;;;;;4952125;28;20049;-59
2021/05/14 07:38:46;;;;;;;14.60;5.90;;;;;;;;;;4950207;28;20110;-59
2021/05/14 07:41:12;;;;;;;8.07;5.43;;;;;;;;;;4942005;28;20044;-59
2021/05/14 07:43:39;;;;;;;11.43;4.95;;;;;;;;;;4949403;28;20051;-59
2021/05/14 07:46:06;;;;;;;8.98;5.63;;;;;;;;;;4947338;28;20494;-59
2021/05/14 07:48:33;;;;;;;11.57;5.30;;;;;;;;;;4948319;28;20058;-59
2021/05/14 07:51:00;;;;;;;7.22;5.70;;;;;;;;;;4946819;28;20072;-59
2021/05/14 07:53:27;;;;;;;16.48;6.45;;;;;;;;;;4942268;28;20747;-59
2021/05/14 07:55:54;;;;;;;8.88;5.88;;;;;;;;;;4945407;28;20039;-59
2021/05/14 07:58:22;;;;;;;14.90;5.67;;;;;;;;;;4947729;28;20051;-58
2021/05/14 08:00:50;;;;;;;8.50;5.55;;;;;;;;;;4945241;28;20074;-59
2021/05/14 08:03:17;;;;;;;9.77;6.03;;;;;;;;;;4947150;28;20640;-59
2021/05/14 08:05:48;;;;;;;10.05;6.15;;;;;;;;;;4945049;28;20451;-59
2021/05/14 08:08:18;;;;;;;8.98;5.25;;;;;;;;;;4954067;28;20043;-59
2021/05/14 08:10:45;;;;;;;11.23;6.03;;;;;;;;;;4948031;28;20107;-59
2021/05/14 08:13:21;;;;;;;9.23;5.97;;;;;;;;;;4946525;28;20063;-59
2021/05/14 08:15:48;;;;;;;14.30;5.78;;;;;;;;;;4947136;29;20051;-59
2021/05/14 08:18:14;;;;;;;12.02;6.00;;;;;;;;;;4946895;28;20492;-59
2021/05/14 08:20:41;;;;;;;10.68;5.72;;;;;;;;;;4947030;28;20043;-59
2021/05/14 08:23:09;;;;;;;15.80;6.53;;;;;;;;;;4930448;29;20047;-59
2021/05/14 08:25:36;;;;;;;11.63;6.35;;;;;;;;;;4946779;28;20515;-59
2021/05/14 08:28:03;;;;;;;7.60;5.85;;;;;;;;;;4945309;28;20102;-59
2021/05/14 08:30:30;;;;;;;14.80;6.13;;;;;;;;;;4942823;28;20051;-59
2021/05/14 08:32:57;;;;;;;13.25;6.45;;;;;;;;;;4942943;28;20055;-59
2021/05/14 08:35:23;;;;;;;10.32;7.28;;;;;;;;;;4943090;28;20039;-59
2021/05/14 08:37:52;;;;;;;9.73;6.60;;;;;;;;;;4942920;28;20139;-59
2021/05/14 08:40:19;;;;;;;15.25;6.68;;;;;;;;;;4942484;28;20067;-59
2021/05/14 08:42:46;;;;;;;9.87;6.77;;;;;;;;;;4945723;28;20039;-59
2021/05/14 08:45:13;;;;;;;17.85;6.80;;;;;;;;;;4943130;28;20052;-59
2021/05/14 08:47:41;;;;;;;9.68;6.63;;;;;;;;;;4949290;28;20047;-59
2021/05/14 08:50:10;;;;;;;9.68;6.65;;;;;;;;;;4946516;28;20039;-59
2021/05/14 08:52:38;;;;;;;13.15;7.10;;;;;;;;;;4945730;28;20051;-59
2021/05/14 08:55:06;;;;;;;13.63;6.75;;;;;;;;;;4949706;28;20062;-59
2021/05/14 08:57:33;;;;;;;19.45;7.53;;;;;;;;;;4948418;28;20050;-58
2021/05/14 08:59:59;;;;;;;15.13;7.10;;;;;;;;;;4945009;28;20043;-59
2021/05/14 09:02:27;;;;;;;13.52;7.78;;;;;;;;;;4931841;28;20140;-59
2021/05/14 09:04:54;;;;;;;15.47;7.80;;;;;;;;;;4942710;28;20078;-59
2021/05/14 09:07:20;;;;;;;10.07;7.10;;;;;;;;;;4944878;28;20079;-59
2021/05/14 09:10:04;;;;;;;12.97;7.30;;;;;;;;;;4942168;28;20130;-59
2021/05/14 09:12:33;;;;;;;9.98;7.13;;;;;;;;;;4942949;28;20052;-59
2021/05/14 09:15:00;;;;;;;14.52;7.13;;;;;;;;;;4944260;28;20047;-59
2021/05/14 09:17:27;;;;;;;11.27;6.82;;;;;;;;;;4940720;28;20155;-59
2021/05/14 09:19:53;;;;;;;9.35;6.80;;;;;;;;;;4942642;28;20135;-59
2021/05/14 09:22:24;;;;;;;15.85;6.93;;;;;;;;;;4942728;28;20047;-60
2021/05/14 09:24:58;;;;;;;10.80;6.75;;;;;;;;;;4942358;28;20047;-59
2021/05/14 09:27:25;;;;;;;14.25;7.38;;;;;;;;;;4945553;28;20047;-60
2021/05/14 09:29:53;;;;;;;12.30;6.75;;;;;;;;;;4947283;28;20114;-59
2021/05/14 09:32:23;;;;;;;13.48;6.93;;;;;;;;;;4933400;29;20111;-59
2021/05/14 09:34:53;;;;;;;11.88;6.80;;;;;;;;;;4924934;29;20050;-59
2021/05/14 09:37:20;;;;;;;;;;;;;;;;;;4927811;29;20494;-60
2021/05/14 09:39:46;;;;;;;11.60;7.55;;;;;;;;;;4923407;29;19961;-59
2021/05/14 09:42:29;;;;;;;17.58;8.15;;;;;;;;;;4927340;29;20036;-60
2021/05/14 09:45:11;;;;;;;11.38;7.47;;;;;;;;;;4919478;29;20523;-60
2021/05/14 09:47:39;;;;;;;10.25;7.40;;;;;;;;;;4921820;29;20052;-60
2021/05/14 09:50:24;;;;;;;10.82;6.50;;;;;;;;;;4932952;29;20047;-60
2021/05/14 09:53:01;;;;;;;9.40;6.75;;;;;;;;;;4922993;29;20052;-60
2021/05/14 09:55:28;;;;;;;11.60;6.78;;;;;;;;;;4925397;29;20123;-60
2021/05/14 09:58:02;;;;;;;13.43;6.70;;;;;;;;;;4924920;29;20127;-59
2021/05/14 10:00:28;;;;;;;13.57;6.95;;;;;;;;;;4926356;29;20075;-60
2021/05/14 10:02:57;;;;;;;13.32;7.20;;;;;;;;;;4923872;29;20559;-59
2021/05/14 10:05:24;;;;;;;12.18;6.75;;;;;;;;;;4921943;29;20570;-60
2021/05/14 10:07:51;;;;;;;7.93;6.47;;;;;;;;;;4923959;29;20562;-60
2021/05/14 10:10:18;;;;;;;11.65;6.60;;;;;;;;;;4928631;29;20043;-60
2021/05/14 10:12:44;;;;;;;;;;;;;;;;;;4926432;29;20072;-60
2021/05/14 10:15:12;;;;;;;11.13;6.85;;;;;;;;;;4923484;29;19966;-60
2021/05/14 10:17:39;;;;;;;12.55;6.50;;;;;;;;;;4927236;29;20031;-60
2021/05/14 10:20:11;;;;;;;10.27;6.72;;;;;;;;;;4927321;29;20039;-60
2021/05/14 10:22:38;;;;;;;9.90;6.90;;;;;;;;;;4929869;29;20047;-60
2021/05/14 10:25:06;;;;;;;12.88;7.38;;;;;;;;;;4921729;29;20036;-60
2021/05/14 10:27:39;;;;;;;13.20;7.72;;;;;;;;;;4926551;29;20036;-60
2021/05/14 10:30:13;;;;;;;14.13;7.50;;;;;;;;;;4926604;29;20492;-60
2021/05/14 10:32:39;;;;;;;12.75;7.20;;;;;;;;;;4929801;29;20062;-60
2021/05/14 10:35:07;;;;;;;15.67;7.80;;;;;;;;;;4927468;29;20067;-60
2021/05/14 10:37:46;;;;;;;11.75;7.20;;;;;;;;;;4926832;29;20356;-60
2021/05/14 10:40:32;;;;;;;10.45;7.10;;;;;;;;;;4932731;29;20539;-60
2021/05/14 10:43:06;;;;;;;10.23;7.22;;;;;;;;;;4926685;29;20039;-60
2021/05/14 10:45:36;;;;;;;11.05;7.38;;;;;;;;;;4929103;29;20601;-60
2021/05/14 10:48:04;;;;;;;10.00;7.07;;;;;;;;;;4927450;29;20060;-60
2021/05/14 10:50:38;;;;;;;10.23;7.00;;;;;;;;;;4925576;29;20056;-60
2021/05/14 10:53:26;;;;;;;10.95;8.23;;;;;;;;;;4928970;29;20099;-59
2021/05/14 10:55:53;;;;;;;18.20;8.52;;;;;;;;;;4923595;29;20051;-60
2021/05/14 10:58:39;;;;;;;11.48;7.78;;;;;;;;;;4931886;29;20583;-59
2021/05/14 11:01:06;;;;;;;10.77;6.78;;;;;;;;;;4925034;29;20099;-60
2021/05/14 11:03:34;;;;;;;10.20;7.22;;;;;;;;;;4928233;29;20054;-59
2021/05/14 11:06:19;;;;;;;17.42;8.18;;;;;;;;;;4929757;29;20464;-59
2021/05/14 11:08:58;;;;;;;12.88;6.95;;;;;;;;;;4932668;29;20051;-60
2021/05/14 11:11:45;;;;;;;;;;;;;;;;;;4928682;29;20455;-60
2021/05/14 11:14:15;;;;;;;13.25;8.10;;;;;;;;;;4930670;29;19922;-60
2021/05/14 11:16:43;;;;;;;10.13;7.75;;;;;;;;;;4928886;29;20135;-60
2021/05/14 11:19:16;;;;;;;10.45;7.35;;;;;;;;;;4927189;29;20059;-60
2021/05/14 11:21:55;;;;;;;11.77;7.20;;;;;;;;;;4933144;29;20040;-60
2021/05/14 11:24:30;;;;;;;10.02;7.22;;;;;;;;;;4933644;29;20065;-60
2021/05/14 11:27:18;;;;;;;11.63;7.38;;;;;;;;;;4922715;29;20059;-60
2021/05/14 11:29:54;;;;;;;11.73;7.60;;;;;;;;;;4923677;29;20047;-60
2021/05/14 11:32:23;;;;;;;11.30;7.43;;;;;;;;;;4925304;29;20056;-60
2021/05/14 11:34:57;;;;;;;14.52;7.95;;;;;;;;;;4924623;29;20103;-60
2021/05/14 11:37:29;;;;;;;12.50;8.13;;;;;;;;;;4929805;29;20051;-60
2021/05/14 11:39:56;;;;;;;15.18;7.57;;;;;;;;;;4927101;29;20058;-60
2021/05/14 11:42:24;;;;;;;16.00;7.32;;;;;;;;;;4926118;29;20485;-60
2021/05/14 11:44:55;;;;;;;15.82;7.43;;;;;;;;;;4928441;29;20052;-60
2021/05/14 11:47:21;;;;;;;16.08;7.95;;;;;;;;;;4927301;29;20052;-60
2021/05/14 11:49:48;;;;;;;16.50;8.07;;;;;;;;;;4928636;29;20467;-60
2021/05/14 11:52:29;;;;;;;15.93;7.38;;;;;;;;;;4924189;29;20047;-60
2021/05/14 11:55:00;;;;;;;16.40;8.38;;;;;;;;;;4897305;29;20067;-60
2021/05/14 11:57:29;;;;;;;13.95;8.25;;;;;;;;;;4924594;29;20125;-60
2021/05/14 11:59:57;;;;;;;17.23;8.23;;;;;;;;;;4927222;29;20054;-60
2021/05/14 12:02:23;;;;;;;;;;;;;;;;;;4918761;29;20044;-60
2021/05/14 12:04:51;;;;;;;10.18;7.53;;;;;;;;;;4926557;29;20006;-60
2021/05/14 12:07:24;;;;;;;14.98;7.78;;;;;;;;;;4924432;29;20059;-60
2021/05/14 12:10:00;;;;;;;10.90;7.57;;;;;;;;;;4926290;29;20043;-60
2021/05/14 12:12:27;;;;;;;15.77;7.47;;;;;;;;;;4914829;29;20055;-60
2021/05/14 12:15:07;;;;;;;13.05;8.13;;;;;;;;;;4926278;29;22677;-59
2021/05/14 12:17:37;;;;;;;16.73;8.25;;;;;;;;;;4925063;29;20099;-60
2021/05/14 12:20:15;;;;;;;21.27;10.43;;;;;;;;;;4873946;29;20368;-60
2021/05/14 12:22:46;;;;;;;20.45;9.68;;;;;;;;;;4927263;29;20546;-60
2021/05/14 12:25:13;;;;;;;15.18;8.80;;;;;;;;;;4923440;29;20541;-60
2021/05/14 12:27:40;;;;;;;11.30;7.60;;;;;;;;;;4909965;29;20040;-60
2021/05/14 12:30:09;;;;;;;14.80;7.95;;;;;;;;;;4921395;29;20048;-60
2021/05/14 12:32:38;;;;;;;10.90;8.15;;;;;;;;;;4924543;29;20518;-60
2021/05/14 12:35:06;;;;;;;12.95;7.80;;;;;;;;;;4931011;29;20087;-60
2021/05/14 12:37:33;;;;;;;15.18;7.88;;;;;;;;;;4921255;29;20488;-60
2021/05/14 12:40:00;;;;;;;14.55;7.97;;;;;;;;;;4929814;29;20099;-60
2021/05/14 12:42:30;;;;;;;14.90;8.57;;;;;;;;;;4925717;29;20094;-61
2021/05/14 12:44:59;;;;;;;15.02;8.55;;;;;;;;;;4927780;29;20047;-61
2021/05/14 12:47:29;;;;;;;22.58;8.90;;;;;;;;;;4925141;29;20471;-61
2021/05/14 12:50:06;;;;;;;16.50;8.88;;;;;;;;;;4927276;29;20059;-61
2021/05/14 12:52:37;;;;;;;12.13;7.93;;;;;;;;;;4923454;29;20047;-61
2021/05/14 12:55:12;;;;;;;10.18;8.32;;;;;;;;;;4922787;29;20044;-61
2021/05/14 12:57:41;;;;;;;19.55;9.85;;;;;;;;;;4920393;29;20525;-61
2021/05/14 13:00:14;;;;;;;12.73;8.98;;;;;;;;;;4923935;29;20128;-61
2021/05/14 13:02:49;;;;;;;18.80;10.05;;;;;;;;;;4926728;29;20055;-61
2021/05/14 13:05:16;;;;;;;13.70;9.38;;;;;;;;;;4922323;29;20075;-61
2021/05/14 13:08:00;;;;;;;10.85;7.97;;;;;;;;;;4919908;29;20040;-61
2021/05/14 13:10:33;;;;;;;11.85;8.82;;;;;;;;;;4925867;29;20691;-61
2021/05/14 13:13:00;;;;;;;10.95;8.20;;;;;;;;;;4930378;29;20047;-61
2021/05/14 13:15:27;;;;;;;13.70;8.13;;;;;;;;;;4928507;29;20043;-61
2021/05/14 13:17:54;;;;;;;11.43;7.90;;;;;;;;;;4928466;29;20295;-61
2021/05/14 13:20:22;;;;;;;8.50;7.20;;;;;;;;;;4924728;29;20143;-61
2021/05/14 13:22:49;;;;;;;14.20;8.55;;;;;;;;;;4925166;29;20039;-61
2021/05/14 13:25:16;;;;;;;10.32;8.07;;;;;;;;;;4926396;29;20103;-62
2021/05/14 13:27:43;;;;;;;13.32;9.50;;;;;;;;;;4927104;29;20059;-61
2021/05/14 13:30:10;;;;;;;15.52;9.25;;;;;;;;;;4923961;29;20577;-61
2021/05/14 13:32:38;;;;;;;14.38;9.13;;;;;;;;;;4923422;29;20143;-60
2021/05/14 13:35:09;;;;;;;13.68;8.15;;;;;;;;;;4923944;29;20068;-60
2021/05/14 13:37:36;;;;;;;12.70;7.55;;;;;;;;;;4920432;29;20035;-60
2021/05/14 13:40:05;;;;;;;12.40;8.68;;;;;;;;;;4930536;29;20058;-59
2021/05/14 13:42:32;;;;;;;12.15;8.20;;;;;;;;;;4934504;29;20543;-60
2021/05/14 13:44:58;;;;;;;16.30;10.20;;;;;;;;;;4931773;29;20062;-60
2021/05/14 13:47:25;;;;;;;12.27;9.27;;;;;;;;;;4936578;29;20291;-60
2021/05/14 13:49:52;;;;;;;11.75;9.20;;;;;;;;;;4934469;29;20119;-60
2021/05/14 13:52:19;;;;;;;12.65;10.20;;;;;;;;;;4931869;29;20055;-60
2021/05/14 13:54:46;;;;;;;16.27;11.03;;;;;;;;;;4930521;29;20044;-61
2021/05/14 13:57:13;;;;;;;13.57;10.32;;;;;;;;;;4931521;29;20295;-60
2021/05/14 13:59:39;;;;;;;16.08;10.07;;;;;;;;;;4930178;29;20493;-61
2021/05/14 14:02:06;;;;;;;13.32;10.05;;;;;;;;;;4937349;29;20126;-61
2021/05/14 14:04:33;;;;;;;12.33;10.03;;;;;;;;;;4932757;29;20047;-61
2021/05/14 14:07:00;;;;;;;11.73;10.27;;;;;;;;;;4928592;29;20048;-61
2021/05/14 14:09:27;;;;;;;11.85;10.27;;;;;;;;;;4930034;29;20303;-61
2021/05/14 14:11:54;;;;;;;14.70;10.65;;;;;;;;;;4930641;29;20499;-61
2021/05/14 14:14:22;;;;;;;21.50;10.43;;;;;;;;;;4935070;29;20142;-61
2021/05/14 14:16:49;;;;;;;;;;;;;;;;;;4925554;29;20044;-61
2021/05/14 14:19:16;;;;;;;13.10;10.95;;;;;;;;;;4931767;29;19926;-64
2021/05/14 14:21:43;;;;;;;16.70;10.20;;;;;;;;;;4927801;29;20055;-61
2021/05/14 14:24:12;;;;;;;14.27;9.45;;;;;;;;;;4930250;29;20095;-61
2021/05/14 14:26:40;;;;;;;17.77;9.30;;;;;;;;;;4919120;29;20587;-61
2021/05/14 14:29:06;;;;;;;19.42;10.30;;;;;;;;;;4930437;29;20411;-61
2021/05/14 14:31:33;;;;;;;18.08;8.77;;;;;;;;;;4930536;29;20064;-61
2021/05/14 14:34:00;;;;;;;16.45;8.63;;;;;;;;;;4927855;29;20127;-61
2021/05/14 14:36:27;;;;;;;15.73;8.23;;;;;;;;;;4931058;29;20572;-61
2021/05/14 14:38:53;;;;;;;9.20;7.65;;;;;;;;;;4926824;29;20496;-61
2021/05/14 14:41:21;;;;;;;11.70;8.30;;;;;;;;;;4936581;29;20048;-61